sensor_id;sensor_type;location;lat;lon;timestamp;P1;durP1;ratioP1;P2;durP2;ratioP2
14171;SDS011;7165;52.388;4.928;2022-11-20T00:01:14;11.47;;;10.37;;
14171;SDS011;7165;52.388;4.928;2022-11-20T00:03:43;11.23;;;10.13;;
14171;SDS011;7165;52.388;4.928;2022-11-20T00:06:10;11.50;;;10.40;;
14171;SDS011;7165;52.388;4.928;2022-11-20T00:08:38;11.53;;;10.30;;
14171;SDS011;7165;52.388;4.928;2022-11-20T00:11:06;11.73;;;10.33;;
14171;SDS011;7165;52.388;4.928;2022-11-20T00:13:34;11.43;;;10.23;;
14171;SDS011;7165;52.388;4.928;2022-11-20T00:16:01;9.70;;;8.90;;
14171;SDS011;7165;52.388;4.928;2022-11-20T00:18:31;11.40;;;10.37;;
14171;SDS011;7165;52.388;4.928;2022-11-20T00:21:01;11.10;;;10.10;;
14171;SDS011;7165;52.388;4.928;2022-11-20T00:23:28;10.53;;;9.47;;
14171;SDS011;7165;52.388;4.928;2022-11-20T00:25:55;12.00;;;10.67;;
14171;SDS011;7165;52.388;4.928;2022-11-20T00:28:22;11.60;;;10.50;;
14171;SDS011;7165;52.388;4.928;2022-11-20T00:30:49;12.63;;;11.37;;
14171;SDS011;7165;52.388;4.928;2022-11-20T00:33:15;12.40;;;11.10;;
14171;SDS011;7165;52.388;4.928;2022-11-20T00:35:43;11.90;;;10.70;;
14171;SDS011;7165;52.388;4.928;2022-11-20T00:38:10;10.93;;;9.80;;
14171;SDS011;7165;52.388;4.928;2022-11-20T00:40:36;12.00;;;10.43;;
14171;SDS011;7165;52.388;4.928;2022-11-20T00:43:03;12.57;;;11.33;;
14171;SDS011;7165;52.388;4.928;2022-11-20T00:45:30;12.27;;;10.77;;
14171;SDS011;7165;52.388;4.928;2022-11-20T00:47:56;12.97;;;11.30;;
14171;SDS011;7165;52.388;4.928;2022-11-20T00:50:23;12.40;;;11.10;;
14171;SDS011;7165;52.388;4.928;2022-11-20T00:52:51;12.00;;;10.77;;
14171;SDS011;7165;52.388;4.928;2022-11-20T00:55:18;11.80;;;10.70;;
14171;SDS011;7165;52.388;4.928;2022-11-20T00:57:44;12.17;;;10.93;;
14171;SDS011;7165;52.388;4.928;2022-11-20T01:00:11;13.20;;;11.83;;
14171;SDS011;7165;52.388;4.928;2022-11-20T01:02:38;11.63;;;10.53;;
14171;SDS011;7165;52.388;4.928;2022-11-20T01:05:04;10.63;;;9.63;;
14171;SDS011;7165;52.388;4.928;2022-11-20T01:07:31;13.73;;;12.27;;
14171;SDS011;7165;52.388;4.928;2022-11-20T01:09:59;12.17;;;10.60;;
14171;SDS011;7165;52.388;4.928;2022-11-20T01:12:26;12.97;;;11.33;;
14171;SDS011;7165;52.388;4.928;2022-11-20T01:14:53;11.13;;;10.03;;
14171;SDS011;7165;52.388;4.928;2022-11-20T01:17:19;11.37;;;10.27;;
14171;SDS011;7165;52.388;4.928;2022-11-20T01:19:48;12.40;;;11.13;;
14171;SDS011;7165;52.388;4.928;2022-11-20T01:22:15;11.73;;;10.57;;
14171;SDS011;7165;52.388;4.928;2022-11-20T01:24:41;11.47;;;10.27;;
14171;SDS011;7165;52.388;4.928;2022-11-20T01:27:09;11.90;;;10.70;;
14171;SDS011;7165;52.388;4.928;2022-11-20T01:29:36;12.00;;;10.80;;
14171;SDS011;7165;52.388;4.928;2022-11-20T01:32:03;13.90;;;12.10;;
14171;SDS011;7165;52.388;4.928;2022-11-20T01:34:30;12.50;;;11.27;;
14171;SDS011;7165;52.388;4.928;2022-11-20T01:36:56;13.17;;;11.97;;
14171;SDS011;7165;52.388;4.928;2022-11-20T01:39:24;13.47;;;11.37;;
14171;SDS011;7165;52.388;4.928;2022-11-20T01:41:52;13.10;;;11.80;;
14171;SDS011;7165;52.388;4.928;2022-11-20T01:44:49;12.10;;;10.97;;
14171;SDS011;7165;52.388;4.928;2022-11-20T01:47:20;12.10;;;10.90;;
14171;SDS011;7165;52.388;4.928;2022-11-20T01:49:52;14.17;;;12.77;;
14171;SDS011;7165;52.388;4.928;2022-11-20T01:52:23;13.70;;;12.03;;
14171;SDS011;7165;52.388;4.928;2022-11-20T01:54:53;13.17;;;11.80;;
14171;SDS011;7165;52.388;4.928;2022-11-20T01:57:23;13.47;;;12.07;;
14171;SDS011;7165;52.388;4.928;2022-11-20T01:59:56;13.43;;;11.50;;
14171;SDS011;7165;52.388;4.928;2022-11-20T02:02:27;16.50;;;11.67;;
14171;SDS011;7165;52.388;4.928;2022-11-20T02:04:54;12.90;;;11.47;;
14171;SDS011;7165;52.388;4.928;2022-11-20T02:07:26;13.43;;;11.03;;
14171;SDS011;7165;52.388;4.928;2022-11-20T02:09:54;13.30;;;11.97;;
14171;SDS011;7165;52.388;4.928;2022-11-20T02:12:21;12.30;;;11.10;;
14171;SDS011;7165;52.388;4.928;2022-11-20T02:15:06;12.70;;;11.40;;
14171;SDS011;7165;52.388;4.928;2022-11-20T02:17:34;12.60;;;11.20;;
14171;SDS011;7165;52.388;4.928;2022-11-20T02:20:00;12.67;;;11.17;;
14171;SDS011;7165;52.388;4.928;2022-11-20T02:22:28;13.67;;;11.83;;
14171;SDS011;7165;52.388;4.928;2022-11-20T02:25:00;13.10;;;11.80;;
14171;SDS011;7165;52.388;4.928;2022-11-20T02:27:29;12.43;;;11.33;;
14171;SDS011;7165;52.388;4.928;2022-11-20T02:29:57;12.80;;;11.57;;
14171;SDS011;7165;52.388;4.928;2022-11-20T02:32:27;11.70;;;10.50;;
14171;SDS011;7165;52.388;4.928;2022-11-20T02:34:56;16.03;;;13.67;;
14171;SDS011;7165;52.388;4.928;2022-11-20T02:37:23;13.43;;;12.13;;
14171;SDS011;7165;52.388;4.928;2022-11-20T02:39:56;13.10;;;11.80;;
14171;SDS011;7165;52.388;4.928;2022-11-20T02:42:24;14.57;;;13.07;;
14171;SDS011;7165;52.388;4.928;2022-11-20T02:44:51;13.67;;;11.67;;
14171;SDS011;7165;52.388;4.928;2022-11-20T02:47:17;13.00;;;11.70;;
14171;SDS011;7165;52.388;4.928;2022-11-20T02:49:44;13.57;;;12.17;;
14171;SDS011;7165;52.388;4.928;2022-11-20T02:52:11;13.63;;;12.13;;
14171;SDS011;7165;52.388;4.928;2022-11-20T02:54:37;13.73;;;12.40;;
14171;SDS011;7165;52.388;4.928;2022-11-20T02:57:04;13.07;;;11.73;;
14171;SDS011;7165;52.388;4.928;2022-11-20T02:59:32;14.13;;;12.63;;
14171;SDS011;7165;52.388;4.928;2022-11-20T03:01:59;14.27;;;12.07;;
14171;SDS011;7165;52.388;4.928;2022-11-20T03:04:25;12.33;;;11.13;;
14171;SDS011;7165;52.388;4.928;2022-11-20T03:06:52;15.27;;;13.70;;
14171;SDS011;7165;52.388;4.928;2022-11-20T03:09:19;13.27;;;11.87;;
14171;SDS011;7165;52.388;4.928;2022-11-20T03:11:45;13.60;;;12.27;;
14171;SDS011;7165;52.388;4.928;2022-11-20T03:14:12;13.63;;;12.23;;
14171;SDS011;7165;52.388;4.928;2022-11-20T03:16:40;16.77;;;12.87;;
14171;SDS011;7165;52.388;4.928;2022-11-20T03:19:07;12.23;;;11.00;;
14171;SDS011;7165;52.388;4.928;2022-11-20T03:21:34;13.23;;;11.93;;
14171;SDS011;7165;52.388;4.928;2022-11-20T03:24:00;13.83;;;11.57;;
14171;SDS011;7165;52.388;4.928;2022-11-20T03:26:28;14.47;;;12.93;;
14171;SDS011;7165;52.388;4.928;2022-11-20T03:28:55;13.97;;;12.47;;
14171;SDS011;7165;52.388;4.928;2022-11-20T03:31:24;13.67;;;12.37;;
14171;SDS011;7165;52.388;4.928;2022-11-20T03:33:53;13.00;;;11.70;;
14171;SDS011;7165;52.388;4.928;2022-11-20T03:36:20;15.20;;;13.20;;
14171;SDS011;7165;52.388;4.928;2022-11-20T03:38:47;14.13;;;12.43;;
14171;SDS011;7165;52.388;4.928;2022-11-20T03:41:15;16.23;;;13.27;;
14171;SDS011;7165;52.388;4.928;2022-11-20T03:43:46;14.23;;;12.83;;
14171;SDS011;7165;52.388;4.928;2022-11-20T03:46:14;14.00;;;12.43;;
14171;SDS011;7165;52.388;4.928;2022-11-20T03:48:41;13.10;;;11.77;;
14171;SDS011;7165;52.388;4.928;2022-11-20T03:51:10;14.70;;;13.20;;
14171;SDS011;7165;52.388;4.928;2022-11-20T03:53:38;14.27;;;11.90;;
14171;SDS011;7165;52.388;4.928;2022-11-20T03:56:05;15.20;;;13.20;;
14171;SDS011;7165;52.388;4.928;2022-11-20T03:58:32;13.97;;;12.53;;
14171;SDS011;7165;52.388;4.928;2022-11-20T04:01:04;14.47;;;13.07;;
14171;SDS011;7165;52.388;4.928;2022-11-20T04:03:32;14.47;;;12.97;;
14171;SDS011;7165;52.388;4.928;2022-11-20T04:06:01;14.63;;;13.13;;
14171;SDS011;7165;52.388;4.928;2022-11-20T04:08:30;13.87;;;12.47;;
14171;SDS011;7165;52.388;4.928;2022-11-20T04:11:07;14.73;;;13.23;;
14171;SDS011;7165;52.388;4.928;2022-11-20T04:13:34;15.43;;;13.93;;
14171;SDS011;7165;52.388;4.928;2022-11-20T04:16:01;13.60;;;12.30;;
14171;SDS011;7165;52.388;4.928;2022-11-20T04:18:28;15.10;;;12.57;;
14171;SDS011;7165;52.388;4.928;2022-11-20T04:20:56;14.50;;;12.77;;
14171;SDS011;7165;52.388;4.928;2022-11-20T04:23:22;16.00;;;14.30;;
14171;SDS011;7165;52.388;4.928;2022-11-20T04:25:50;12.93;;;11.60;;
14171;SDS011;7165;52.388;4.928;2022-11-20T04:28:17;14.23;;;12.83;;
14171;SDS011;7165;52.388;4.928;2022-11-20T04:30:44;13.83;;;12.43;;
14171;SDS011;7165;52.388;4.928;2022-11-20T04:33:10;14.07;;;12.60;;
14171;SDS011;7165;52.388;4.928;2022-11-20T04:35:37;15.13;;;13.60;;
14171;SDS011;7165;52.388;4.928;2022-11-20T04:38:04;15.40;;;13.83;;
14171;SDS011;7165;52.388;4.928;2022-11-20T04:40:31;15.13;;;13.13;;
14171;SDS011;7165;52.388;4.928;2022-11-20T04:42:59;15.47;;;13.87;;
14171;SDS011;7165;52.388;4.928;2022-11-20T04:45:25;16.17;;;14.20;;
14171;SDS011;7165;52.388;4.928;2022-11-20T04:47:52;16.60;;;14.83;;
14171;SDS011;7165;52.388;4.928;2022-11-20T04:50:19;15.27;;;13.73;;
14171;SDS011;7165;52.388;4.928;2022-11-20T04:52:45;16.33;;;14.63;;
14171;SDS011;7165;52.388;4.928;2022-11-20T04:55:12;15.83;;;13.50;;
14171;SDS011;7165;52.388;4.928;2022-11-20T04:57:39;15.03;;;13.27;;
14171;SDS011;7165;52.388;4.928;2022-11-20T05:00:07;16.57;;;14.87;;
14171;SDS011;7165;52.388;4.928;2022-11-20T05:02:35;16.77;;;14.93;;
14171;SDS011;7165;52.388;4.928;2022-11-20T05:05:01;15.70;;;14.10;;
14171;SDS011;7165;52.388;4.928;2022-11-20T05:07:28;15.80;;;14.20;;
14171;SDS011;7165;52.388;4.928;2022-11-20T05:09:55;16.10;;;14.40;;
14171;SDS011;7165;52.388;4.928;2022-11-20T05:12:21;16.50;;;14.70;;
14171;SDS011;7165;52.388;4.928;2022-11-20T05:14:48;16.67;;;14.87;;
14171;SDS011;7165;52.388;4.928;2022-11-20T05:17:16;18.37;;;14.93;;
14171;SDS011;7165;52.388;4.928;2022-11-20T05:19:43;17.50;;;14.73;;
14171;SDS011;7165;52.388;4.928;2022-11-20T05:22:09;18.03;;;15.23;;
14171;SDS011;7165;52.388;4.928;2022-11-20T05:24:36;18.67;;;15.73;;
14171;SDS011;7165;52.388;4.928;2022-11-20T05:27:03;16.50;;;14.80;;
14171;SDS011;7165;52.388;4.928;2022-11-20T05:29:29;15.77;;;14.13;;
14171;SDS011;7165;52.388;4.928;2022-11-20T05:31:56;18.33;;;16.00;;
14171;SDS011;7165;52.388;4.928;2022-11-20T05:34:24;17.23;;;14.63;;
14171;SDS011;7165;52.388;4.928;2022-11-20T05:36:50;15.13;;;13.33;;
14171;SDS011;7165;52.388;4.928;2022-11-20T05:39:17;16.53;;;14.73;;
14171;SDS011;7165;52.388;4.928;2022-11-20T05:41:44;17.57;;;14.90;;
14171;SDS011;7165;52.388;4.928;2022-11-20T05:44:10;16.00;;;14.40;;
14171;SDS011;7165;52.388;4.928;2022-11-20T05:46:37;15.80;;;14.17;;
14171;SDS011;7165;52.388;4.928;2022-11-20T05:49:04;17.50;;;15.00;;
14171;SDS011;7165;52.388;4.928;2022-11-20T05:51:32;16.03;;;14.33;;
14171;SDS011;7165;52.388;4.928;2022-11-20T05:53:58;17.27;;;15.43;;
14171;SDS011;7165;52.388;4.928;2022-11-20T05:56:25;18.00;;;15.23;;
14171;SDS011;7165;52.388;4.928;2022-11-20T05:58:52;16.20;;;14.20;;
14171;SDS011;7165;52.388;4.928;2022-11-20T06:01:20;16.73;;;15.00;;
14171;SDS011;7165;52.388;4.928;2022-11-20T06:03:48;15.90;;;13.97;;
14171;SDS011;7165;52.388;4.928;2022-11-20T06:06:16;17.13;;;15.33;;
14171;SDS011;7165;52.388;4.928;2022-11-20T06:08:44;16.07;;;14.23;;
14171;SDS011;7165;52.388;4.928;2022-11-20T06:11:12;20.03;;;16.03;;
14171;SDS011;7165;52.388;4.928;2022-11-20T06:13:40;17.10;;;15.30;;
14171;SDS011;7165;52.388;4.928;2022-11-20T06:16:07;18.13;;;14.43;;
14171;SDS011;7165;52.388;4.928;2022-11-20T06:18:33;16.50;;;14.80;;
14171;SDS011;7165;52.388;4.928;2022-11-20T06:21:01;18.43;;;15.80;;
14171;SDS011;7165;52.388;4.928;2022-11-20T06:23:29;19.53;;;17.00;;
14171;SDS011;7165;52.388;4.928;2022-11-20T06:25:58;19.80;;;17.00;;
14171;SDS011;7165;52.388;4.928;2022-11-20T06:28:26;20.50;;;17.00;;
14171;SDS011;7165;52.388;4.928;2022-11-20T06:30:53;18.97;;;16.73;;
14171;SDS011;7165;52.388;4.928;2022-11-20T06:33:20;20.33;;;17.30;;
14171;SDS011;7165;52.388;4.928;2022-11-20T06:35:46;19.80;;;17.50;;
14171;SDS011;7165;52.388;4.928;2022-11-20T06:38:13;19.97;;;17.30;;
14171;SDS011;7165;52.388;4.928;2022-11-20T06:40:40;17.57;;;15.67;;
14171;SDS011;7165;52.388;4.928;2022-11-20T06:43:08;18.37;;;16.47;;
14171;SDS011;7165;52.388;4.928;2022-11-20T06:45:35;17.77;;;15.87;;
14171;SDS011;7165;52.388;4.928;2022-11-20T06:48:02;20.50;;;16.40;;
14171;SDS011;7165;52.388;4.928;2022-11-20T06:50:29;19.30;;;16.87;;
14171;SDS011;7165;52.388;4.928;2022-11-20T06:52:55;18.10;;;15.90;;
14171;SDS011;7165;52.388;4.928;2022-11-20T06:55:22;19.23;;;17.23;;
14171;SDS011;7165;52.388;4.928;2022-11-20T06:57:50;20.80;;;17.73;;
14171;SDS011;7165;52.388;4.928;2022-11-20T07:00:18;19.93;;;17.63;;
14171;SDS011;7165;52.388;4.928;2022-11-20T07:02:45;20.13;;;17.87;;
14171;SDS011;7165;52.388;4.928;2022-11-20T07:05:11;19.90;;;16.77;;
14171;SDS011;7165;52.388;4.928;2022-11-20T07:07:38;22.30;;;17.80;;
14171;SDS011;7165;52.388;4.928;2022-11-20T07:10:05;18.33;;;16.33;;
14171;SDS011;7165;52.388;4.928;2022-11-20T07:12:32;19.90;;;17.30;;
14171;SDS011;7165;52.388;4.928;2022-11-20T07:14:59;18.50;;;16.60;;
14171;SDS011;7165;52.388;4.928;2022-11-20T07:17:27;18.63;;;15.83;;
14171;SDS011;7165;52.388;4.928;2022-11-20T07:19:53;20.67;;;16.93;;
14171;SDS011;7165;52.388;4.928;2022-11-20T07:22:20;19.30;;;17.13;;
14171;SDS011;7165;52.388;4.928;2022-11-20T07:24:47;19.43;;;16.90;;
14171;SDS011;7165;52.388;4.928;2022-11-20T07:27:14;18.80;;;16.77;;
14171;SDS011;7165;52.388;4.928;2022-11-20T07:29:41;18.73;;;16.77;;
14171;SDS011;7165;52.388;4.928;2022-11-20T07:32:07;22.80;;;18.87;;
14171;SDS011;7165;52.388;4.928;2022-11-20T07:34:35;18.30;;;16.33;;
14171;SDS011;7165;52.388;4.928;2022-11-20T07:37:02;17.57;;;15.77;;
14171;SDS011;7165;52.388;4.928;2022-11-20T07:39:28;20.00;;;16.93;;
14171;SDS011;7165;52.388;4.928;2022-11-20T07:41:55;21.33;;;16.53;;
14171;SDS011;7165;52.388;4.928;2022-11-20T07:44:22;19.80;;;17.70;;
14171;SDS011;7165;52.388;4.928;2022-11-20T07:46:48;20.70;;;18.13;;
14171;SDS011;7165;52.388;4.928;2022-11-20T07:49:15;18.03;;;16.23;;
14171;SDS011;7165;52.388;4.928;2022-11-20T07:51:43;19.77;;;17.27;;
14171;SDS011;7165;52.388;4.928;2022-11-20T07:54:09;21.03;;;18.87;;
14171;SDS011;7165;52.388;4.928;2022-11-20T07:56:36;20.00;;;17.00;;
14171;SDS011;7165;52.388;4.928;2022-11-20T07:59:03;19.97;;;17.33;;
14171;SDS011;7165;52.388;4.928;2022-11-20T08:01:29;19.17;;;17.10;;
14171;SDS011;7165;52.388;4.928;2022-11-20T08:03:56;20.97;;;18.57;;
14171;SDS011;7165;52.388;4.928;2022-11-20T08:06:23;21.83;;;18.00;;
14171;SDS011;7165;52.388;4.928;2022-11-20T08:08:51;19.97;;;17.93;;
14171;SDS011;7165;52.388;4.928;2022-11-20T08:11:17;20.17;;;17.87;;
14171;SDS011;7165;52.388;4.928;2022-11-20T08:14:02;22.53;;;18.00;;
14171;SDS011;7165;52.388;4.928;2022-11-20T08:16:37;20.03;;;17.00;;
14171;SDS011;7165;52.388;4.928;2022-11-20T08:19:04;18.93;;;16.97;;
14171;SDS011;7165;52.388;4.928;2022-11-20T08:21:31;20.37;;;18.30;;
14171;SDS011;7165;52.388;4.928;2022-11-20T08:23:59;21.97;;;18.50;;
14171;SDS011;7165;52.388;4.928;2022-11-20T08:26:26;18.60;;;16.70;;
14171;SDS011;7165;52.388;4.928;2022-11-20T08:28:53;20.63;;;18.53;;
14171;SDS011;7165;52.388;4.928;2022-11-20T08:31:20;19.70;;;17.67;;
14171;SDS011;7165;52.388;4.928;2022-11-20T08:33:47;21.07;;;18.53;;
14171;SDS011;7165;52.388;4.928;2022-11-20T08:36:13;21.17;;;18.87;;
14171;SDS011;7165;52.388;4.928;2022-11-20T08:38:40;20.30;;;18.13;;
14171;SDS011;7165;52.388;4.928;2022-11-20T08:41:08;20.33;;;18.10;;
14171;SDS011;7165;52.388;4.928;2022-11-20T08:43:51;19.93;;;17.83;;
14171;SDS011;7165;52.388;4.928;2022-11-20T08:46:18;20.93;;;18.73;;
14171;SDS011;7165;52.388;4.928;2022-11-20T08:48:45;19.97;;;17.87;;
14171;SDS011;7165;52.388;4.928;2022-11-20T08:51:12;19.83;;;17.83;;
14171;SDS011;7165;52.388;4.928;2022-11-20T08:53:39;21.13;;;18.83;;
14171;SDS011;7165;52.388;4.928;2022-11-20T08:56:06;20.83;;;18.70;;
14171;SDS011;7165;52.388;4.928;2022-11-20T08:58:35;22.67;;;18.73;;
14171;SDS011;7165;52.388;4.928;2022-11-20T09:01:02;18.77;;;16.83;;
14171;SDS011;7165;52.388;4.928;2022-11-20T09:03:29;20.33;;;18.23;;
14171;SDS011;7165;52.388;4.928;2022-11-20T09:05:57;20.80;;;18.13;;
14171;SDS011;7165;52.388;4.928;2022-11-20T09:08:24;24.73;;;19.30;;
14171;SDS011;7165;52.388;4.928;2022-11-20T09:10:51;21.93;;;19.63;;
14171;SDS011;7165;52.388;4.928;2022-11-20T09:13:19;21.73;;;19.53;;
14171;SDS011;7165;52.388;4.928;2022-11-20T09:15:46;22.97;;;18.57;;
14171;SDS011;7165;52.388;4.928;2022-11-20T09:18:12;23.20;;;19.77;;
14171;SDS011;7165;52.388;4.928;2022-11-20T09:20:39;20.47;;;18.37;;
14171;SDS011;7165;52.388;4.928;2022-11-20T09:23:06;21.53;;;19.23;;
14171;SDS011;7165;52.388;4.928;2022-11-20T09:25:32;19.53;;;16.77;;
14171;SDS011;7165;52.388;4.928;2022-11-20T09:27:59;20.07;;;17.97;;
14171;SDS011;7165;52.388;4.928;2022-11-20T09:30:27;19.00;;;17.10;;
14171;SDS011;7165;52.388;4.928;2022-11-20T09:32:54;19.20;;;17.20;;
14171;SDS011;7165;52.388;4.928;2022-11-20T09:35:21;18.40;;;16.47;;
14171;SDS011;7165;52.388;4.928;2022-11-20T09:37:47;19.77;;;17.67;;
14171;SDS011;7165;52.388;4.928;2022-11-20T09:40:17;20.17;;;18.07;;
14171;SDS011;7165;52.388;4.928;2022-11-20T09:42:47;20.47;;;18.37;;
14171;SDS011;7165;52.388;4.928;2022-11-20T09:45:36;19.60;;;17.60;;
14171;SDS011;7165;52.388;4.928;2022-11-20T09:48:20;19.10;;;17.10;;
14171;SDS011;7165;52.388;4.928;2022-11-20T09:51:00;20.33;;;18.00;;
14171;SDS011;7165;52.388;4.928;2022-11-20T09:53:35;21.20;;;19.00;;
14171;SDS011;7165;52.388;4.928;2022-11-20T09:56:11;21.23;;;19.03;;
14171;SDS011;7165;52.388;4.928;2022-11-20T09:58:47;19.83;;;17.57;;
14171;SDS011;7165;52.388;4.928;2022-11-20T10:01:18;19.73;;;17.80;;
14171;SDS011;7165;52.388;4.928;2022-11-20T10:03:50;21.63;;;18.97;;
14171;SDS011;7165;52.388;4.928;2022-11-20T10:06:23;21.33;;;19.03;;
14171;SDS011;7165;52.388;4.928;2022-11-20T10:08:55;20.33;;;18.23;;
14171;SDS011;7165;52.388;4.928;2022-11-20T10:11:29;21.17;;;19.00;;
14171;SDS011;7165;52.388;4.928;2022-11-20T10:14:07;22.57;;;20.27;;
14171;SDS011;7165;52.388;4.928;2022-11-20T10:16:45;21.53;;;19.53;;
14171;SDS011;7165;52.388;4.928;2022-11-20T10:19:27;23.03;;;20.00;;
14171;SDS011;7165;52.388;4.928;2022-11-20T10:22:09;20.03;;;18.13;;
14171;SDS011;7165;52.388;4.928;2022-11-20T10:24:44;22.70;;;20.30;;
14171;SDS011;7165;52.388;4.928;2022-11-20T10:27:33;21.40;;;19.07;;
14171;SDS011;7165;52.388;4.928;2022-11-20T10:30:19;20.43;;;18.43;;
14171;SDS011;7165;52.388;4.928;2022-11-20T10:32:51;22.40;;;20.10;;
14171;SDS011;7165;52.388;4.928;2022-11-20T10:35:21;20.53;;;18.37;;
14171;SDS011;7165;52.388;4.928;2022-11-20T10:37:51;21.87;;;19.67;;
14171;SDS011;7165;52.388;4.928;2022-11-20T10:40:23;21.37;;;19.20;;
14171;SDS011;7165;52.388;4.928;2022-11-20T10:42:58;22.17;;;19.77;;
14171;SDS011;7165;52.388;4.928;2022-11-20T10:45:31;21.13;;;18.93;;
14171;SDS011;7165;52.388;4.928;2022-11-20T10:48:19;21.37;;;19.27;;
14171;SDS011;7165;52.388;4.928;2022-11-20T10:50:51;21.00;;;18.93;;
14171;SDS011;7165;52.388;4.928;2022-11-20T10:53:40;20.70;;;18.57;;
14171;SDS011;7165;52.388;4.928;2022-11-20T10:56:16;22.93;;;20.60;;
14171;SDS011;7165;52.388;4.928;2022-11-20T10:58:48;21.43;;;18.97;;
14171;SDS011;7165;52.388;4.928;2022-11-20T11:01:39;21.27;;;18.97;;
14171;SDS011;7165;52.388;4.928;2022-11-20T11:04:08;20.93;;;18.73;;
14171;SDS011;7165;52.388;4.928;2022-11-20T11:06:56;21.87;;;19.50;;
14171;SDS011;7165;52.388;4.928;2022-11-20T11:09:30;22.90;;;18.63;;
14171;SDS011;7165;52.388;4.928;2022-11-20T11:12:01;22.00;;;19.90;;
14171;SDS011;7165;52.388;4.928;2022-11-20T11:14:41;23.20;;;19.70;;
14171;SDS011;7165;52.388;4.928;2022-11-20T11:17:17;23.17;;;19.97;;
14171;SDS011;7165;52.388;4.928;2022-11-20T11:19:57;24.33;;;21.27;;
14171;SDS011;7165;52.388;4.928;2022-11-20T11:22:25;22.80;;;19.70;;
14171;SDS011;7165;52.388;4.928;2022-11-20T11:24:56;25.73;;;21.70;;
14171;SDS011;7165;52.388;4.928;2022-11-20T11:27:22;26.10;;;21.40;;
14171;SDS011;7165;52.388;4.928;2022-11-20T11:29:49;24.87;;;21.37;;
14171;SDS011;7165;52.388;4.928;2022-11-20T11:32:18;26.67;;;21.20;;
14171;SDS011;7165;52.388;4.928;2022-11-20T11:34:59;24.70;;;22.10;;
14171;SDS011;7165;52.388;4.928;2022-11-20T11:37:26;27.60;;;22.50;;
14171;SDS011;7165;52.388;4.928;2022-11-20T11:39:58;26.73;;;22.87;;
14171;SDS011;7165;52.388;4.928;2022-11-20T11:42:25;25.00;;;21.77;;
14171;SDS011;7165;52.388;4.928;2022-11-20T11:44:55;29.70;;;24.50;;
14171;SDS011;7165;52.388;4.928;2022-11-20T11:47:33;34.17;;;25.77;;
14171;SDS011;7165;52.388;4.928;2022-11-20T11:50:15;31.53;;;26.27;;
14171;SDS011;7165;52.388;4.928;2022-11-20T11:52:44;31.23;;;25.77;;
14171;SDS011;7165;52.388;4.928;2022-11-20T11:55:15;31.53;;;26.20;;
14171;SDS011;7165;52.388;4.928;2022-11-20T11:57:49;34.20;;;27.43;;
14171;SDS011;7165;52.388;4.928;2022-11-20T12:00:20;38.33;;;30.17;;
14171;SDS011;7165;52.388;4.928;2022-11-20T12:02:52;38.33;;;30.77;;
14171;SDS011;7165;52.388;4.928;2022-11-20T12:05:25;36.23;;;27.23;;
14171;SDS011;7165;52.388;4.928;2022-11-20T12:07:55;32.97;;;26.67;;
14171;SDS011;7165;52.388;4.928;2022-11-20T12:10:30;35.77;;;28.07;;
14171;SDS011;7165;52.388;4.928;2022-11-20T12:13:09;33.40;;;27.13;;
14171;SDS011;7165;52.388;4.928;2022-11-20T12:15:44;38.53;;;29.43;;
14171;SDS011;7165;52.388;4.928;2022-11-20T12:18:14;38.50;;;32.33;;
14171;SDS011;7165;52.388;4.928;2022-11-20T12:20:45;38.07;;;29.67;;
14171;SDS011;7165;52.388;4.928;2022-11-20T12:23:22;39.87;;;32.40;;
14171;SDS011;7165;52.388;4.928;2022-11-20T12:25:55;38.03;;;30.73;;
14171;SDS011;7165;52.388;4.928;2022-11-20T12:34:31;45.53;;;30.77;;
14171;SDS011;7165;52.388;4.928;2022-11-20T12:37:13;39.40;;;30.70;;
14171;SDS011;7165;52.388;4.928;2022-11-20T12:39:52;43.30;;;31.20;;
14171;SDS011;7165;52.388;4.928;2022-11-20T12:42:33;41.37;;;31.40;;
14171;SDS011;7165;52.388;4.928;2022-11-20T12:48:41;40.50;;;31.70;;
14171;SDS011;7165;52.388;4.928;2022-11-20T12:54:30;39.77;;;30.37;;
14171;SDS011;7165;52.388;4.928;2022-11-20T12:57:16;43.33;;;33.80;;
14171;SDS011;7165;52.388;4.928;2022-11-20T13:02:54;44.23;;;31.27;;
14171;SDS011;7165;52.388;4.928;2022-11-20T13:05:34;45.10;;;33.63;;
14171;SDS011;7165;52.388;4.928;2022-11-20T13:08:07;42.83;;;33.47;;
14171;SDS011;7165;52.388;4.928;2022-11-20T13:10:46;50.87;;;35.60;;
14171;SDS011;7165;52.388;4.928;2022-11-20T13:13:19;48.97;;;33.60;;
14171;SDS011;7165;52.388;4.928;2022-11-20T13:15:53;44.13;;;32.03;;
14171;SDS011;7165;52.388;4.928;2022-11-20T13:18:25;41.13;;;32.57;;
14171;SDS011;7165;52.388;4.928;2022-11-20T13:20:52;41.83;;;32.37;;
14171;SDS011;7165;52.388;4.928;2022-11-20T13:23:25;43.93;;;32.27;;
14171;SDS011;7165;52.388;4.928;2022-11-20T13:26:04;43.27;;;32.63;;
14171;SDS011;7165;52.388;4.928;2022-11-20T13:28:32;43.00;;;32.03;;
14171;SDS011;7165;52.388;4.928;2022-11-20T13:30:59;44.43;;;32.50;;
14171;SDS011;7165;52.388;4.928;2022-11-20T13:33:27;43.60;;;32.57;;
14171;SDS011;7165;52.388;4.928;2022-11-20T13:35:57;39.87;;;31.17;;
14171;SDS011;7165;52.388;4.928;2022-11-20T13:38:25;40.17;;;31.07;;
14171;SDS011;7165;52.388;4.928;2022-11-20T13:40:53;43.57;;;32.83;;
14171;SDS011;7165;52.388;4.928;2022-11-20T13:43:26;44.17;;;33.40;;
14171;SDS011;7165;52.388;4.928;2022-11-20T13:45:59;41.47;;;32.63;;
14171;SDS011;7165;52.388;4.928;2022-11-20T13:48:30;40.33;;;31.03;;
14171;SDS011;7165;52.388;4.928;2022-11-20T13:53:49;42.33;;;33.53;;
14171;SDS011;7165;52.388;4.928;2022-11-20T13:56:40;41.40;;;32.90;;
14171;SDS011;7165;52.388;4.928;2022-11-20T13:59:22;41.87;;;32.97;;
14171;SDS011;7165;52.388;4.928;2022-11-20T14:02:02;44.63;;;35.03;;
14171;SDS011;7165;52.388;4.928;2022-11-20T14:04:32;44.83;;;34.57;;
14171;SDS011;7165;52.388;4.928;2022-11-20T14:07:01;42.27;;;33.10;;
14171;SDS011;7165;52.388;4.928;2022-11-20T14:09:31;44.60;;;34.67;;
14171;SDS011;7165;52.388;4.928;2022-11-20T14:12:00;47.57;;;36.20;;
14171;SDS011;7165;52.388;4.928;2022-11-20T14:14:29;46.07;;;36.53;;
14171;SDS011;7165;52.388;4.928;2022-11-20T14:17:05;41.67;;;32.67;;
14171;SDS011;7165;52.388;4.928;2022-11-20T14:19:32;39.77;;;33.20;;
14171;SDS011;7165;52.388;4.928;2022-11-20T14:22:16;39.53;;;31.67;;
14171;SDS011;7165;52.388;4.928;2022-11-20T14:24:44;40.87;;;32.23;;
14171;SDS011;7165;52.388;4.928;2022-11-20T14:27:13;40.70;;;33.20;;
14171;SDS011;7165;52.388;4.928;2022-11-20T14:29:42;43.70;;;31.90;;
14171;SDS011;7165;52.388;4.928;2022-11-20T14:32:10;39.77;;;30.03;;
14171;SDS011;7165;52.388;4.928;2022-11-20T14:34:38;40.77;;;31.50;;
14171;SDS011;7165;52.388;4.928;2022-11-20T14:37:09;39.93;;;32.30;;
14171;SDS011;7165;52.388;4.928;2022-11-20T14:39:40;40.90;;;31.63;;
14171;SDS011;7165;52.388;4.928;2022-11-20T14:42:14;40.47;;;32.33;;
14171;SDS011;7165;52.388;4.928;2022-11-20T14:44:43;39.30;;;32.53;;
14171;SDS011;7165;52.388;4.928;2022-11-20T14:47:10;39.83;;;31.93;;
14171;SDS011;7165;52.388;4.928;2022-11-20T14:49:39;42.67;;;34.27;;
14171;SDS011;7165;52.388;4.928;2022-11-20T14:52:11;42.13;;;32.83;;
14171;SDS011;7165;52.388;4.928;2022-11-20T14:54:44;39.17;;;30.67;;
14171;SDS011;7165;52.388;4.928;2022-11-20T14:57:20;40.53;;;32.97;;
14171;SDS011;7165;52.388;4.928;2022-11-20T14:59:50;44.43;;;34.40;;
14171;SDS011;7165;52.388;4.928;2022-11-20T15:02:18;43.53;;;32.67;;
14171;SDS011;7165;52.388;4.928;2022-11-20T15:04:45;44.50;;;36.73;;
14171;SDS011;7165;52.388;4.928;2022-11-20T15:07:22;44.40;;;35.33;;
14171;SDS011;7165;52.388;4.928;2022-11-20T15:09:58;42.63;;;35.23;;